You are not logged in, Click here to log in
重慶江北國際機場CKG / ZUCK 中華人民共和國重庆市渝北区
ICAO: ZUCK Country: 中華人民共和國重庆市渝北区
Latitude: 29.7192 Longitude: 106.642
Total Arrivals: 15 Total Departures: 15
Latest Arrival: CZ3475 (ZHCC-ZUCK)CHU. CHUHAO Latest Departure: CZ6175 (ZUCK-ZPJH)CHU. CHUHAO
Scenery:
METAR : ZUCK 220800Z 10002MPS 070V140 6000 NSC 13/07 Q1027 NOSIG

重慶江北國際機場CKG